sensor_id;sensor_type;location;lat;lon;timestamp;pressure;altitude;pressure_sealevel;temperature;humidity
24962;BME280;12992;50.884;13.668;2023-01-31T00:01:28;97298.94;;;1.74;100.00
24962;BME280;12992;50.884;13.668;2023-01-31T00:03:59;97284.66;;;1.67;100.00
24962;BME280;12992;50.884;13.668;2023-01-31T00:06:30;97304.47;;;1.66;100.00
24962;BME280;12992;50.884;13.668;2023-01-31T00:08:57;97284.03;;;1.65;100.00
24962;BME280;12992;50.884;13.668;2023-01-31T00:11:24;97290.22;;;1.65;100.00
24962;BME280;12992;50.884;13.668;2023-01-31T00:13:50;97283.00;;;1.66;100.00
24962;BME280;12992;50.884;13.668;2023-01-31T00:16:16;97284.66;;;1.67;100.00
24962;BME280;12992;50.884;13.668;2023-01-31T00:18:43;97256.81;;;1.68;100.00
24962;BME280;12992;50.884;13.668;2023-01-31T00:21:23;97267.34;;;1.69;100.00
24962;BME280;12992;50.884;13.668;2023-01-31T00:23:49;97265.50;;;1.70;100.00
24962;BME280;12992;50.884;13.668;2023-01-31T00:26:16;97279.94;;;1.69;100.00
24962;BME280;12992;50.884;13.668;2023-01-31T00:28:43;97299.97;;;1.73;100.00
24962;BME280;12992;50.884;13.668;2023-01-31T00:31:10;97288.81;;;1.69;100.00
24962;BME280;12992;50.884;13.668;2023-01-31T00:33:37;97294.81;;;1.72;100.00
24962;BME280;12992;50.884;13.668;2023-01-31T00:36:05;97301.78;;;1.66;100.00
24962;BME280;12992;50.884;13.668;2023-01-31T00:38:31;97299.72;;;1.61;100.00
24962;BME280;12992;50.884;13.668;2023-01-31T00:40:57;97314.75;;;1.56;100.00
24962;BME280;12992;50.884;13.668;2023-01-31T00:43:22;97318.88;;;1.52;100.00
24962;BME280;12992;50.884;13.668;2023-01-31T00:45:47;97293.63;;;1.39;100.00
24962;BME280;12992;50.884;13.668;2023-01-31T00:48:13;97313.38;;;1.32;100.00
24962;BME280;12992;50.884;13.668;2023-01-31T00:50:39;97296.63;;;1.23;100.00
24962;BME280;12992;50.884;13.668;2023-01-31T00:53:04;97318.06;;;1.17;100.00
24962;BME280;12992;50.884;13.668;2023-01-31T00:55:30;97321.50;;;1.10;100.00
24962;BME280;12992;50.884;13.668;2023-01-31T00:57:55;97303.88;;;0.95;100.00
24962;BME280;12992;50.884;13.668;2023-01-31T01:00:21;97293.06;;;0.81;100.00
24962;BME280;12992;50.884;13.668;2023-01-31T01:02:46;97302.84;;;0.68;100.00
24962;BME280;12992;50.884;13.668;2023-01-31T01:05:12;97319.13;;;0.66;100.00
24962;BME280;12992;50.884;13.668;2023-01-31T01:07:37;97320.34;;;0.64;100.00
24962;BME280;12992;50.884;13.668;2023-01-31T01:10:03;97335.59;;;0.63;100.00
24962;BME280;12992;50.884;13.668;2023-01-31T01:12:29;97338.63;;;0.60;100.00
24962;BME280;12992;50.884;13.668;2023-01-31T01:14:54;97364.59;;;0.60;100.00
24962;BME280;12992;50.884;13.668;2023-01-31T01:17:20;97368.50;;;0.57;100.00
24962;BME280;12992;50.884;13.668;2023-01-31T01:19:47;97361.03;;;0.52;100.00
24962;BME280;12992;50.884;13.668;2023-01-31T01:22:12;97375.09;;;0.54;100.00
24962;BME280;12992;50.884;13.668;2023-01-31T01:24:42;97365.56;;;0.52;100.00
24962;BME280;12992;50.884;13.668;2023-01-31T01:27:08;97360.84;;;0.54;100.00
24962;BME280;12992;50.884;13.668;2023-01-31T01:29:35;97383.94;;;0.55;100.00
24962;BME280;12992;50.884;13.668;2023-01-31T01:32:00;97386.25;;;0.58;100.00
24962;BME280;12992;50.884;13.668;2023-01-31T01:34:26;97381.28;;;0.55;100.00
24962;BME280;12992;50.884;13.668;2023-01-31T01:36:51;97399.00;;;0.56;100.00
24962;BME280;12992;50.884;13.668;2023-01-31T01:39:16;97404.59;;;0.61;100.00
24962;BME280;12992;50.884;13.668;2023-01-31T01:41:42;97412.28;;;0.64;100.00
24962;BME280;12992;50.884;13.668;2023-01-31T01:44:46;97419.94;;;0.67;100.00
24962;BME280;12992;50.884;13.668;2023-01-31T01:53:02;97426.19;;;0.74;100.00
24962;BME280;12992;50.884;13.668;2023-01-31T01:55:34;97426.81;;;0.76;100.00
24962;BME280;12992;50.884;13.668;2023-01-31T02:00:46;97428.03;;;0.74;100.00
24962;BME280;12992;50.884;13.668;2023-01-31T02:03:13;97430.53;;;0.75;100.00
24962;BME280;12992;50.884;13.668;2023-01-31T02:05:51;97458.44;;;0.81;100.00
24962;BME280;12992;50.884;13.668;2023-01-31T02:08:18;97453.31;;;0.86;100.00
24962;BME280;12992;50.884;13.668;2023-01-31T02:10:52;97466.34;;;0.89;100.00
24962;BME280;12992;50.884;13.668;2023-01-31T02:13:21;97467.81;;;0.92;100.00
24962;BME280;12992;50.884;13.668;2023-01-31T02:15:47;97472.78;;;0.95;100.00
24962;BME280;12992;50.884;13.668;2023-01-31T02:18:13;97462.69;;;0.97;100.00
24962;BME280;12992;50.884;13.668;2023-01-31T02:21:04;97463.16;;;1.00;100.00
24962;BME280;12992;50.884;13.668;2023-01-31T02:26:54;97454.72;;;1.03;100.00
24962;BME280;12992;50.884;13.668;2023-01-31T02:35:16;97489.84;;;1.08;100.00
24962;BME280;12992;50.884;13.668;2023-01-31T02:38:07;97493.16;;;1.10;100.00
24962;BME280;12992;50.884;13.668;2023-01-31T02:41:00;97508.03;;;1.13;100.00
24962;BME280;12992;50.884;13.668;2023-01-31T02:43:44;97504.31;;;1.14;100.00
24962;BME280;12992;50.884;13.668;2023-01-31T02:46:38;97499.16;;;1.12;100.00
24962;BME280;12992;50.884;13.668;2023-01-31T02:49:23;97493.78;;;1.12;100.00
24962;BME280;12992;50.884;13.668;2023-01-31T02:54:55;97495.66;;;1.12;100.00
24962;BME280;12992;50.884;13.668;2023-01-31T02:57:44;97503.69;;;1.12;100.00
24962;BME280;12992;50.884;13.668;2023-01-31T03:00:11;97503.69;;;1.12;100.00
24962;BME280;12992;50.884;13.668;2023-01-31T03:02:38;97501.00;;;1.12;100.00
24962;BME280;12992;50.884;13.668;2023-01-31T03:05:03;97513.41;;;1.13;100.00
24962;BME280;12992;50.884;13.668;2023-01-31T03:07:30;97515.88;;;1.14;100.00
24962;BME280;12992;50.884;13.668;2023-01-31T03:10:37;97522.75;;;1.17;100.00
24962;BME280;12992;50.884;13.668;2023-01-31T03:13:17;97533.66;;;1.16;100.00
24962;BME280;12992;50.884;13.668;2023-01-31T03:16:05;97522.09;;;1.15;100.00
24962;BME280;12992;50.884;13.668;2023-01-31T03:19:04;97532.84;;;1.15;100.00
24962;BME280;12992;50.884;13.668;2023-01-31T03:21:51;97532.44;;;1.18;100.00
24962;BME280;12992;50.884;13.668;2023-01-31T03:24:20;97522.09;;;1.15;100.00
24962;BME280;12992;50.884;13.668;2023-01-31T03:26:56;97542.53;;;1.16;100.00
24962;BME280;12992;50.884;13.668;2023-01-31T03:29:23;97531.16;;;1.14;100.00
24962;BME280;12992;50.884;13.668;2023-01-31T03:31:54;97520.72;;;1.04;100.00
24962;BME280;12992;50.884;13.668;2023-01-31T03:34:22;97516.06;;;0.92;100.00
24962;BME280;12992;50.884;13.668;2023-01-31T03:36:53;97517.09;;;0.91;100.00
24962;BME280;12992;50.884;13.668;2023-01-31T03:45:19;97522.81;;;0.88;100.00
24962;BME280;12992;50.884;13.668;2023-01-31T03:47:49;97523.00;;;0.86;100.00
24962;BME280;12992;50.884;13.668;2023-01-31T03:50:24;97534.56;;;0.87;100.00
24962;BME280;12992;50.884;13.668;2023-01-31T03:52:55;97542.88;;;0.92;100.00
24962;BME280;12992;50.884;13.668;2023-01-31T03:55:53;97544.16;;;0.96;100.00
24962;BME280;12992;50.884;13.668;2023-01-31T03:58:25;97559.88;;;0.99;100.00
24962;BME280;12992;50.884;13.668;2023-01-31T04:00:51;97576.41;;;1.02;100.00
24962;BME280;12992;50.884;13.668;2023-01-31T04:03:33;97579.09;;;1.02;100.00
24962;BME280;12992;50.884;13.668;2023-01-31T04:06:00;97581.78;;;1.02;100.00
24962;BME280;12992;50.884;13.668;2023-01-31T04:08:26;97572.28;;;1.00;100.00
24962;BME280;12992;50.884;13.668;2023-01-31T04:11:02;97568.13;;;0.97;100.00
24962;BME280;12992;50.884;13.668;2023-01-31T04:13:28;97567.66;;;0.94;100.00
24962;BME280;12992;50.884;13.668;2023-01-31T04:15:53;97577.84;;;0.98;100.00
24962;BME280;12992;50.884;13.668;2023-01-31T04:18:18;97598.69;;;1.03;100.00
24962;BME280;12992;50.884;13.668;2023-01-31T04:20:44;97594.63;;;1.07;100.00
24962;BME280;12992;50.884;13.668;2023-01-31T04:23:09;97597.13;;;1.08;100.00
24962;BME280;12992;50.884;13.668;2023-01-31T04:25:34;97603.97;;;1.11;100.00
24962;BME280;12992;50.884;13.668;2023-01-31T04:28:00;97609.97;;;1.13;100.00
24962;BME280;12992;50.884;13.668;2023-01-31T04:30:25;97608.28;;;1.12;100.00
24962;BME280;12992;50.884;13.668;2023-01-31T04:32:50;97597.56;;;1.12;100.00
24962;BME280;12992;50.884;13.668;2023-01-31T04:35:16;97602.56;;;1.15;100.00
24962;BME280;12992;50.884;13.668;2023-01-31T04:37:41;97598.88;;;1.16;100.00
24962;BME280;12992;50.884;13.668;2023-01-31T04:40:07;97597.84;;;1.17;100.00
24962;BME280;12992;50.884;13.668;2023-01-31T04:42:32;97599.50;;;1.18;100.00
24962;BME280;12992;50.884;13.668;2023-01-31T04:44:57;97602.38;;;1.17;100.00
24962;BME280;12992;50.884;13.668;2023-01-31T04:47:23;97608.56;;;1.17;100.00
24962;BME280;12992;50.884;13.668;2023-01-31T04:49:49;97586.28;;;1.17;100.00
24962;BME280;12992;50.884;13.668;2023-01-31T04:52:14;97590.16;;;1.14;100.00
24962;BME280;12992;50.884;13.668;2023-01-31T04:54:39;97597.56;;;1.12;100.00
24962;BME280;12992;50.884;13.668;2023-01-31T04:57:06;97579.53;;;1.06;100.00
24962;BME280;12992;50.884;13.668;2023-01-31T04:59:31;97592.22;;;1.12;100.00
24962;BME280;12992;50.884;13.668;2023-01-31T05:01:56;97596.53;;;1.13;100.00
24962;BME280;12992;50.884;13.668;2023-01-31T05:04:22;97600.88;;;1.14;100.00
24962;BME280;12992;50.884;13.668;2023-01-31T05:06:47;97589.59;;;1.19;100.00
24962;BME280;12992;50.884;13.668;2023-01-31T05:09:13;97604.88;;;1.18;100.00
24962;BME280;12992;50.884;13.668;2023-01-31T05:11:38;97600.13;;;1.20;100.00
24962;BME280;12992;50.884;13.668;2023-01-31T05:14:04;97602.81;;;1.20;100.00
24962;BME280;12992;50.884;13.668;2023-01-31T05:16:29;97596.44;;;1.21;100.00
24962;BME280;12992;50.884;13.668;2023-01-31T05:18:54;97601.59;;;1.23;100.00
24962;BME280;12992;50.884;13.668;2023-01-31T05:21:20;97603.44;;;1.22;100.00
24962;BME280;12992;50.884;13.668;2023-01-31T05:23:45;97605.09;;;1.23;100.00
24962;BME280;12992;50.884;13.668;2023-01-31T05:26:10;97601.44;;;1.24;100.00
24962;BME280;12992;50.884;13.668;2023-01-31T05:28:36;97606.81;;;1.24;100.00
24962;BME280;12992;50.884;13.668;2023-01-31T05:31:04;97607.03;;;1.29;100.00
24962;BME280;12992;50.884;13.668;2023-01-31T05:33:30;97606.41;;;1.27;100.00
24962;BME280;12992;50.884;13.668;2023-01-31T05:35:56;97603.16;;;1.32;100.00
24962;BME280;12992;50.884;13.668;2023-01-31T05:38:22;97604.38;;;1.29;100.00
24962;BME280;12992;50.884;13.668;2023-01-31T05:40:48;97611.38;;;1.30;100.00
24962;BME280;12992;50.884;13.668;2023-01-31T05:43:14;97603.16;;;1.32;100.00
24962;BME280;12992;50.884;13.668;2023-01-31T05:45:39;97590.38;;;1.34;100.00
24962;BME280;12992;50.884;13.668;2023-01-31T05:48:05;97602.78;;;1.35;100.00
24962;BME280;12992;50.884;13.668;2023-01-31T05:50:30;97596.59;;;1.34;100.00
24962;BME280;12992;50.884;13.668;2023-01-31T05:53:07;97591.59;;;1.31;100.00
24962;BME280;12992;50.884;13.668;2023-01-31T05:55:33;97589.94;;;1.30;100.00
24962;BME280;12992;50.884;13.668;2023-01-31T05:57:58;97602.31;;;1.31;100.00
24962;BME280;12992;50.884;13.668;2023-01-31T06:00:25;97609.34;;;1.32;100.00
24962;BME280;12992;50.884;13.668;2023-01-31T06:02:50;97613.03;;;1.31;100.00
24962;BME280;12992;50.884;13.668;2023-01-31T06:05:15;97619.25;;;1.32;100.00
24962;BME280;12992;50.884;13.668;2023-01-31T06:07:41;97627.47;;;1.30;100.00
24962;BME280;12992;50.884;13.668;2023-01-31T06:10:08;97618.41;;;1.31;100.00
24962;BME280;12992;50.884;13.668;2023-01-31T06:12:34;97615.09;;;1.29;100.00
24962;BME280;12992;50.884;13.668;2023-01-31T06:15:00;97622.13;;;1.30;100.00
24962;BME280;12992;50.884;13.668;2023-01-31T06:17:25;97624.16;;;1.28;100.00
24962;BME280;12992;50.884;13.668;2023-01-31T06:19:50;97630.16;;;1.30;100.00
24962;BME280;12992;50.884;13.668;2023-01-31T06:22:17;97626.84;;;1.28;100.00
24962;BME280;12992;50.884;13.668;2023-01-31T06:24:42;97631.59;;;1.26;100.00
24962;BME280;12992;50.884;13.668;2023-01-31T06:27:07;97639.25;;;1.29;100.00
24962;BME280;12992;50.884;13.668;2023-01-31T06:29:33;97627.88;;;1.27;100.00
24962;BME280;12992;50.884;13.668;2023-01-31T06:31:58;97614.47;;;1.27;100.00
24962;BME280;12992;50.884;13.668;2023-01-31T06:34:23;97613.63;;;1.27;100.00
24962;BME280;12992;50.884;13.668;2023-01-31T06:36:49;97619.19;;;1.25;100.00
24962;BME280;12992;50.884;13.668;2023-01-31T06:39:14;97641.09;;;1.29;100.00
24962;BME280;12992;50.884;13.668;2023-01-31T06:41:40;97634.06;;;1.28;100.00
24962;BME280;12992;50.884;13.668;2023-01-31T06:44:05;97640.25;;;1.28;100.00
24962;BME280;12992;50.884;13.668;2023-01-31T06:46:31;97646.91;;;1.32;100.00
24962;BME280;12992;50.884;13.668;2023-01-31T06:48:56;97646.25;;;1.30;100.00
24962;BME280;12992;50.884;13.668;2023-01-31T06:51:21;97632.03;;;1.30;100.00
24962;BME280;12992;50.884;13.668;2023-01-31T06:53:47;97651.44;;;1.32;100.00
24962;BME280;12992;50.884;13.668;2023-01-31T06:56:12;97644.88;;;1.34;100.00
24962;BME280;12992;50.884;13.668;2023-01-31T06:58:38;97645.53;;;1.36;100.00
24962;BME280;12992;50.884;13.668;2023-01-31T07:01:05;97653.19;;;1.39;100.00
24962;BME280;12992;50.884;13.668;2023-01-31T07:03:31;97637.06;;;1.39;100.00
24962;BME280;12992;50.884;13.668;2023-01-31T07:05:56;97667.25;;;1.41;100.00
24962;BME280;12992;50.884;13.668;2023-01-31T07:08:21;97665.41;;;1.42;100.00
24962;BME280;12992;50.884;13.668;2023-01-31T07:10:47;97675.94;;;1.44;100.00
24962;BME280;12992;50.884;13.668;2023-01-31T07:13:13;97665.03;;;1.45;100.00
24962;BME280;12992;50.884;13.668;2023-01-31T07:15:38;97679.72;;;1.49;100.00
24962;BME280;12992;50.884;13.668;2023-01-31T07:18:04;97667.94;;;1.50;100.00
24962;BME280;12992;50.884;13.668;2023-01-31T07:20:30;97669.44;;;1.53;100.00
24962;BME280;12992;50.884;13.668;2023-01-31T07:22:56;97676.72;;;1.59;100.00
24962;BME280;12992;50.884;13.668;2023-01-31T07:25:23;97683.38;;;1.63;100.00
24962;BME280;12992;50.884;13.668;2023-01-31T07:27:48;97675.59;;;1.68;100.00
24962;BME280;12992;50.884;13.668;2023-01-31T07:30:13;97681.59;;;1.70;100.00
24962;BME280;12992;50.884;13.668;2023-01-31T07:32:39;97689.97;;;1.82;100.00
24962;BME280;12992;50.884;13.668;2023-01-31T07:35:04;97684.41;;;1.83;100.00
24962;BME280;12992;50.884;13.668;2023-01-31T07:37:30;97698.53;;;1.92;100.00
24962;BME280;12992;50.884;13.668;2023-01-31T07:39:55;97688.44;;;1.94;100.00
24962;BME280;12992;50.884;13.668;2023-01-31T07:42:20;97686.22;;;1.97;100.00
24962;BME280;12992;50.884;13.668;2023-01-31T07:44:47;97676.03;;;1.93;100.00
24962;BME280;12992;50.884;13.668;2023-01-31T07:47:12;97679.38;;;1.95;100.00
24962;BME280;12992;50.884;13.668;2023-01-31T07:49:38;97674.56;;;1.90;100.00
24962;BME280;12992;50.884;13.668;2023-01-31T07:52:03;97675.19;;;1.92;100.00
24962;BME280;12992;50.884;13.668;2023-01-31T07:54:28;97683.91;;;1.94;100.00
24962;BME280;12992;50.884;13.668;2023-01-31T07:56:54;97674.16;;;1.93;100.00
24962;BME280;12992;50.884;13.668;2023-01-31T07:59:19;97674.56;;;1.90;100.00
24962;BME280;12992;50.884;13.668;2023-01-31T08:01:44;97659.88;;;1.86;100.00
24962;BME280;12992;50.884;13.668;2023-01-31T08:04:28;97672.63;;;1.84;100.00
24962;BME280;12992;50.884;13.668;2023-01-31T08:06:54;97664.22;;;1.87;100.00
24962;BME280;12992;50.884;13.668;2023-01-31T08:09:20;97649.50;;;1.83;100.00
24962;BME280;12992;50.884;13.668;2023-01-31T08:11:46;97671.88;;;1.90;100.00
24962;BME280;12992;50.884;13.668;2023-01-31T08:14:11;97679.91;;;2.12;100.00
24962;BME280;12992;50.884;13.668;2023-01-31T08:16:36;97726.56;;;2.75;100.00
24962;BME280;12992;50.884;13.668;2023-01-31T08:19:02;97729.06;;;3.18;100.00
24962;BME280;12992;50.884;13.668;2023-01-31T08:21:28;97714.81;;;3.24;100.00
24962;BME280;12992;50.884;13.668;2023-01-31T08:23:53;97711.66;;;3.13;100.00
24962;BME280;12992;50.884;13.668;2023-01-31T08:26:20;97693.00;;;3.05;100.00
24962;BME280;12992;50.884;13.668;2023-01-31T08:28:48;97668.53;;;3.00;100.00
24962;BME280;12992;50.884;13.668;2023-01-31T08:31:17;97659.78;;;2.85;100.00
24962;BME280;12992;50.884;13.668;2023-01-31T08:33:42;97651.03;;;2.76;100.00
24962;BME280;12992;50.884;13.668;2023-01-31T08:36:19;97629.00;;;2.60;100.00
24962;BME280;12992;50.884;13.668;2023-01-31T08:38:45;97637.22;;;2.51;100.00
24962;BME280;12992;50.884;13.668;2023-01-31T08:41:11;97633.66;;;2.44;100.00
24962;BME280;12992;50.884;13.668;2023-01-31T08:43:36;97631.38;;;2.41;100.00
24962;BME280;12992;50.884;13.668;2023-01-31T08:46:05;97632.78;;;2.37;100.00
24962;BME280;12992;50.884;13.668;2023-01-31T08:48:34;97618.09;;;2.33;100.00
24962;BME280;12992;50.884;13.668;2023-01-31T08:51:01;97606.66;;;2.24;100.00
24962;BME280;12992;50.884;13.668;2023-01-31T08:53:27;97622.16;;;2.22;100.00
24962;BME280;12992;50.884;13.668;2023-01-31T08:56:00;97621.19;;;2.30;100.00
24962;BME280;12992;50.884;13.668;2023-01-31T08:58:25;97638.00;;;2.39;100.00
24962;BME280;12992;50.884;13.668;2023-01-31T09:00:51;97652.34;;;2.52;100.00
24962;BME280;12992;50.884;13.668;2023-01-31T09:03:16;97647.22;;;2.58;100.00
24962;BME280;12992;50.884;13.668;2023-01-31T09:05:41;97630.59;;;2.47;100.00
24962;BME280;12992;50.884;13.668;2023-01-31T09:08:07;97645.28;;;2.51;100.00
24962;BME280;12992;50.884;13.668;2023-01-31T09:10:32;97638.47;;;2.55;100.00
24962;BME280;12992;50.884;13.668;2023-01-31T09:12:58;97627.34;;;2.59;100.00
24962;BME280;12992;50.884;13.668;2023-01-31T09:15:24;97632.72;;;2.59;100.00
24962;BME280;12992;50.884;13.668;2023-01-31T09:17:51;97619.50;;;2.57;100.00
24962;BME280;12992;50.884;13.668;2023-01-31T09:20:16;97629.63;;;2.62;100.00
24962;BME280;12992;50.884;13.668;2023-01-31T09:22:41;97609.72;;;2.49;100.00
24962;BME280;12992;50.884;13.668;2023-01-31T09:25:07;97614.91;;;2.51;100.00
24962;BME280;12992;50.884;13.668;2023-01-31T09:27:34;97605.38;;;2.48;100.00
24962;BME280;12992;50.884;13.668;2023-01-31T09:29:59;97608.25;;;2.47;100.00
24962;BME280;12992;50.884;13.668;2023-01-31T09:32:25;97601.63;;;2.43;100.00
24962;BME280;12992;50.884;13.668;2023-01-31T09:34:50;97627.97;;;2.61;100.00
24962;BME280;12992;50.884;13.668;2023-01-31T09:37:16;97640.66;;;2.73;100.00
24962;BME280;12992;50.884;13.668;2023-01-31T09:39:41;97624.78;;;2.78;100.00
24962;BME280;12992;50.884;13.668;2023-01-31T09:42:17;97627.34;;;2.93;100.00
24962;BME280;12992;50.884;13.668;2023-01-31T09:44:54;97628.66;;;3.10;100.00
24962;BME280;12992;50.884;13.668;2023-01-31T09:47:28;97625.59;;;3.20;100.00
24962;BME280;12992;50.884;13.668;2023-01-31T09:49:58;97629.75;;;3.29;100.00
24962;BME280;12992;50.884;13.668;2023-01-31T09:52:25;97628.53;;;3.38;100.00
24962;BME280;12992;50.884;13.668;2023-01-31T09:54:52;97638.50;;;3.51;100.00
24962;BME280;12992;50.884;13.668;2023-01-31T09:57:28;97614.47;;;3.50;100.00
24962;BME280;12992;50.884;13.668;2023-01-31T10:05:59;97619.91;;;3.69;99.53
24962;BME280;12992;50.884;13.668;2023-01-31T10:08:45;97613.69;;;3.62;99.01
24962;BME280;12992;50.884;13.668;2023-01-31T10:11:33;97609.16;;;3.76;97.96
24962;BME280;12992;50.884;13.668;2023-01-31T10:14:16;97626.97;;;3.97;97.06
24962;BME280;12992;50.884;13.668;2023-01-31T10:16:57;97608.75;;;3.92;95.78
24962;BME280;12992;50.884;13.668;2023-01-31T10:19:29;97606.88;;;3.93;94.53
24962;BME280;12992;50.884;13.668;2023-01-31T10:22:01;97588.44;;;3.77;94.51
24962;BME280;12992;50.884;13.668;2023-01-31T10:24:39;97583.22;;;3.68;95.22
24962;BME280;12992;50.884;13.668;2023-01-31T10:27:26;97588.84;;;3.74;95.84
24962;BME280;12992;50.884;13.668;2023-01-31T10:30:00;97584.28;;;3.74;95.81
24962;BME280;12992;50.884;13.668;2023-01-31T10:32:33;97566.06;;;3.63;95.26
24962;BME280;12992;50.884;13.668;2023-01-31T10:35:23;97562.31;;;3.57;96.61
24962;BME280;12992;50.884;13.668;2023-01-31T10:37:54;97555.25;;;3.50;96.31
24962;BME280;12992;50.884;13.668;2023-01-31T10:40:27;97539.50;;;3.40;96.46
24962;BME280;12992;50.884;13.668;2023-01-31T10:42:57;97517.94;;;3.27;97.19
24962;BME280;12992;50.884;13.668;2023-01-31T10:45:26;97546.34;;;3.36;96.20
24962;BME280;12992;50.884;13.668;2023-01-31T10:48:17;97540.72;;;3.44;96.34
24962;BME280;12992;50.884;13.668;2023-01-31T10:58:49;97508.03;;;3.40;95.00
24962;BME280;12992;50.884;13.668;2023-01-31T11:01:16;97510.94;;;3.39;95.51
24962;BME280;12992;50.884;13.668;2023-01-31T11:03:49;97516.50;;;3.44;95.25
24962;BME280;12992;50.884;13.668;2023-01-31T11:06:15;97507.22;;;3.47;94.12
24962;BME280;12992;50.884;13.668;2023-01-31T11:08:58;97492.69;;;3.41;95.17
24962;BME280;12992;50.884;13.668;2023-01-31T11:11:26;97486.28;;;3.29;94.27
24962;BME280;12992;50.884;13.668;2023-01-31T11:16:25;97505.13;;;3.42;94.47
24962;BME280;12992;50.884;13.668;2023-01-31T11:18:52;97527.72;;;3.81;93.91
24962;BME280;12992;50.884;13.668;2023-01-31T11:21:24;97508.88;;;3.81;92.44
24962;BME280;12992;50.884;13.668;2023-01-31T11:23:51;97490.19;;;3.79;91.61
24962;BME280;12992;50.884;13.668;2023-01-31T11:26:35;97470.09;;;3.88;90.34
24962;BME280;12992;50.884;13.668;2023-01-31T11:29:08;97465.16;;;3.72;91.66
24962;BME280;12992;50.884;13.668;2023-01-31T11:31:39;97471.78;;;3.69;92.12
24962;BME280;12992;50.884;13.668;2023-01-31T11:34:24;97471.97;;;3.75;92.16
24962;BME280;12992;50.884;13.668;2023-01-31T11:36:50;97457.47;;;3.76;91.46
24962;BME280;12992;50.884;13.668;2023-01-31T11:39:23;97445.88;;;3.68;90.92
24962;BME280;12992;50.884;13.668;2023-01-31T11:41:50;97441.34;;;3.62;92.52
24962;BME280;12992;50.884;13.668;2023-01-31T11:44:17;97436.16;;;3.54;92.42
24962;BME280;12992;50.884;13.668;2023-01-31T11:46:54;97428.72;;;3.56;92.32
24962;BME280;12992;50.884;13.668;2023-01-31T11:49:26;97430.13;;;3.52;92.94
24962;BME280;12992;50.884;13.668;2023-01-31T11:51:53;97429.75;;;3.49;93.50
24962;BME280;12992;50.884;13.668;2023-01-31T11:54:22;97437.00;;;3.48;93.65
24962;BME280;12992;50.884;13.668;2023-01-31T11:56:49;97424.34;;;3.42;94.48
24962;BME280;12992;50.884;13.668;2023-01-31T11:59:18;97418.16;;;3.41;94.96
24962;BME280;12992;50.884;13.668;2023-01-31T12:01:50;97396.59;;;3.35;93.64
24962;BME280;12992;50.884;13.668;2023-01-31T12:04:28;97410.72;;;3.37;95.43
24962;BME280;12992;50.884;13.668;2023-01-31T12:06:57;97408.63;;;3.39;95.15
24962;BME280;12992;50.884;13.668;2023-01-31T12:09:26;97398.28;;;3.36;95.88
24962;BME280;12992;50.884;13.668;2023-01-31T12:12:00;97383.78;;;3.30;96.00
24962;BME280;12992;50.884;13.668;2023-01-31T12:14:39;97384.59;;;3.24;96.37
24962;BME280;12992;50.884;13.668;2023-01-31T12:17:05;97385.88;;;3.22;97.06
24962;BME280;12992;50.884;13.668;2023-01-31T12:22:32;97377.56;;;3.23;97.87
24962;BME280;12992;50.884;13.668;2023-01-31T12:25:18;97366.41;;;3.20;97.88
24962;BME280;12992;50.884;13.668;2023-01-31T12:28:18;97369.31;;;3.18;97.78
24962;BME280;12992;50.884;13.668;2023-01-31T12:33:37;97347.97;;;3.17;99.56
24962;BME280;12992;50.884;13.668;2023-01-31T12:39:31;97342.59;;;3.17;99.96
24962;BME280;12992;50.884;13.668;2023-01-31T12:51:01;97331.00;;;3.16;100.00
24962;BME280;12992;50.884;13.668;2023-01-31T13:02:30;97292.72;;;3.07;100.00
24962;BME280;12992;50.884;13.668;2023-01-31T13:07:54;97290.66;;;2.90;100.00
24962;BME280;12992;50.884;13.668;2023-01-31T13:10:38;97280.94;;;2.82;100.00
24962;BME280;12992;50.884;13.668;2023-01-31T13:13:27;97291.50;;;2.83;100.00
24962;BME280;12992;50.884;13.668;2023-01-31T13:16:14;97291.09;;;2.87;100.00
24962;BME280;12992;50.884;13.668;2023-01-31T13:18:41;97312.41;;;2.95;100.00
24962;BME280;12992;50.884;13.668;2023-01-31T13:21:10;97313.22;;;3.02;100.00
24962;BME280;12992;50.884;13.668;2023-01-31T13:23:45;97310.53;;;2.95;100.00
24962;BME280;12992;50.884;13.668;2023-01-31T13:26:16;97300.59;;;2.89;100.00
24962;BME280;12992;50.884;13.668;2023-01-31T13:28:49;97294.59;;;2.87;100.00
24962;BME280;12992;50.884;13.668;2023-01-31T13:31:25;97290.47;;;2.78;100.00
24962;BME280;12992;50.884;13.668;2023-01-31T13:34:15;97282.81;;;2.75;100.00
24962;BME280;12992;50.884;13.668;2023-01-31T13:36:47;97280.53;;;2.85;100.00
24962;BME280;12992;50.884;13.668;2023-01-31T13:39:24;97272.25;;;2.87;100.00
24962;BME280;12992;50.884;13.668;2023-01-31T13:41:52;97256.34;;;2.78;100.00
24962;BME280;12992;50.884;13.668;2023-01-31T13:44:17;97236.91;;;2.76;100.00
24962;BME280;12992;50.884;13.668;2023-01-31T13:46:51;97230.06;;;2.74;100.00
24962;BME280;12992;50.884;13.668;2023-01-31T13:49:24;97228.00;;;2.63;100.00
24962;BME280;12992;50.884;13.668;2023-01-31T13:51:56;97211.03;;;2.55;100.00
24962;BME280;12992;50.884;13.668;2023-01-31T13:54:32;97203.00;;;2.49;100.00
24962;BME280;12992;50.884;13.668;2023-01-31T13:57:00;97212.09;;;2.41;100.00
24962;BME280;12992;50.884;13.668;2023-01-31T13:59:30;97199.91;;;2.32;100.00
24962;BME280;12992;50.884;13.668;2023-01-31T14:01:59;97203.81;;;2.30;100.00
24962;BME280;12992;50.884;13.668;2023-01-31T14:04:29;97209.00;;;2.31;100.00
24962;BME280;12992;50.884;13.668;2023-01-31T14:10:23;97213.53;;;2.37;100.00
24962;BME280;12992;50.884;13.668;2023-01-31T14:12:40;97216.22;;;2.37;100.00
24962;BME280;12992;50.884;13.668;2023-01-31T14:18:42;97221.00;;;2.42;100.00
24962;BME280;12992;50.884;13.668;2023-01-31T14:23:53;97227.59;;;2.33;100.00
24962;BME280;12992;50.884;13.668;2023-01-31T14:26:49;97238.97;;;2.35;100.00
24962;BME280;12992;50.884;13.668;2023-01-31T14:29:24;97243.91;;;2.38;100.00